KSTL

St Louis Lambert International Airport

St Louis, Missouri, USA
METAR KSTL 182151Z 23011KT 10SM SCT055TCU 35/21 A2997 RMK AO2 SLP135 TCU N-NE T03500211
Observed Flight Rules
Jun-18 @ 21:51 UTC (43 minutes ago) Visual Flight Rules
Wind Visibility Clouds
230° at 11 knots 10 miles
  • Scattered at 5,500' AGL
Temperatures Readings
Current 35°C / 95°F
Dewpoint 21°C / 70°F
Humidity 44%
Altimeter 29.97" Hg
Pressure 1013.5 hPa
Elevation 171
METAR KSTL 182151Z 23011KT 10SM SCT055TCU 35/21 A2997 RMK AO2 SLP135 TCU N-NE T03500211
Observed Flight Rules
Jun-18 @ 21:51 UTC
(43 minutes ago)
VFR
Wind Visibility
230° at 11 knots 10 miles
Clouds
  • Scattered at 5,500' AGL
Temperature Dewpoint
35°C / 95°F 21°C / 70°F
Humidity Altimeter Pressure
44% 29.97" Hg 1013.5 hPa